Latest Weather Observations for Avalon

IDV60801

Issued at 7:22 pm EDT Monday 25 October 2021 (issued every 10 minutes, with the page automatically refreshed every 10 minutes)

About weather observations | Map of weather stations | Latest weather observations for VIC | Other Formats
Station Details ID: 087113 Name: AVALON AIRPORT Lat: -38.03 Lon: 144.48 Height: 10.6 m
Data from the previous 72 hours. | See also: Recent months at Avalon
Date/Time
EDT
Temp
°C
App
Temp
°C
Dew
Point
°C
Rel
Hum
%
Delta-T
°C
Wind Press
QNH
hPa
Press
MSL
hPa
Rain since
9am
mm
Dir  Spd
km/h
Gust
km/h
Spd
kts
Gust
kts
25/07:00pm 12.2 6.6 5.6 64 3.1 S 24 33 13 18 1020.7 1020.7 0.0
25/06:30pm 12.6 7.2 6.2 65 3.0 S 24 32 13 17 1020.6 1020.6 0.0
25/06:00pm 12.8 6.6 6.2 64 3.1 S 28 37 15 20 1020.6 1020.6 0.0
25/05:30pm 13.8 8.1 6.7 62 3.4 S 26 35 14 19 1020.7 1020.7 0.0
25/05:00pm 14.2 8.1 6.8 61 3.6 S 28 35 15 19 1020.7 1020.7 0.0
25/04:30pm 14.8 8.4 7.1 60 3.8 S 30 39 16 21 1020.5 1020.5 0.0
25/04:00pm 15.4 9.3 6.4 55 4.4 S 28 35 15 19 1020.6 1020.6 0.0
25/03:30pm 15.1 9.3 6.1 55 4.3 S 26 35 14 19 1020.9 1020.9 0.0
25/03:00pm 14.1 8.0 6.5 60 3.6 S 28 37 15 20 1021.2 1021.2 0.0
25/02:30pm 14.8 8.5 5.9 55 4.3 SSW 28 35 15 19 1021.4 1021.4 0.0
25/02:00pm 15.5 9.8 8.3 62 3.6 S 28 37 15 20 1021.5 1021.5 0.0
25/01:30pm 14.5 8.7 6.1 57 4.0 SSW 26 33 14 18 1021.6 1021.6 0.0
25/01:00pm 14.1 8.0 4.9 54 4.3 SSW 26 33 14 18 1021.8 1021.8 0.0
25/12:30pm 14.4 8.5 6.0 57 4.0 S 26 30 14 16 1021.9 1021.9 0.0
25/12:00pm 12.8 8.0 5.7 62 3.3 SSW 20 39 11 21 1022.2 1022.2 0.0
25/11:30am 12.2 6.2 7.1 71 2.5 S 28 37 15 20 1022.5 1022.5 0.0
25/11:00am 12.0 7.1 7.1 72 2.3 SSE 22 30 12 16 1022.4 1022.4 0.0
25/10:30am 11.9 7.6 7.2 73 2.3 SSW 19 28 10 15 1022.5 1022.5 0.0
25/10:00am 11.5 5.9 7.2 75 2.1 S 26 35 14 19 1022.4 1022.4 0.0
25/09:30am 11.1 7.7 6.0 71 2.4 SSW 13 17 7 9 1022.2 1022.2 0.0
25/09:00am 10.9 7.1 5.9 71 2.3 W 15 22 8 12 1022.1 1022.1 0.0
25/08:30am 10.5 6.0 6.1 74 2.0 W 19 26 10 14 1022.0 1022.0 0.0
25/08:00am 10.0 5.9 6.2 77 1.8 W 17 24 9 13 1021.7 1021.7 0.0
25/07:30am 9.6 6.1 5.6 76 1.8 WSW 13 19 7 10 1021.6 1021.6 0.0
25/07:00am 9.5 6.4 5.5 76 1.8 WSW 11 17 6 9 1021.4 1021.4 0.0
25/06:30am 10.2 5.4 4.6 68 2.5 SW 19 24 10 13 1021.2 1021.2 0.0
25/06:00am 10.7 5.7 4.4 65 2.8 SW 20 26 11 14 1021.2 1021.2 0.0
25/05:30am 9.7 6.6 5.7 76 1.8 WSW 11 15 6 8 1020.9 1020.9 0.0
25/05:00am 10.7 5.1 3.3 60 3.2 SSW 22 28 12 15 1020.8 1020.8 0.0
25/04:30am 9.3 5.6 6.4 82 1.3 W 15 20 8 11 1020.8 1020.8 0.0
25/04:00am 9.6 6.1 5.6 76 1.8 W 13 19 7 10 1020.8 1020.8 0.0
25/03:30am 10.7 5.5 3.3 60 3.2 SSW 20 30 11 16 1020.9 1020.9 0.0
25/03:00am 9.6 6.6 6.0 78 1.6 WSW 11 17 6 9 1021.3 1021.3 0.0
25/02:30am 9.8 6.8 6.2 78 1.7 WSW 11 15 6 8 1021.3 1021.3 0.0
25/02:00am 9.7 6.4 6.2 79 1.6 WSW 13 17 7 9 1021.8 1021.8 0.0
25/01:30am 9.8 6.5 6.2 78 1.7 W 13 15 7 8 1022.0 1022.0 0.0
25/01:00am 9.9 6.5 6.1 77 1.7 W 13 19 7 10 1022.3 1022.3 0.0
25/12:30am 10.1 5.6 5.9 75 1.9 WSW 19 24 10 13 1022.4 1022.4 0.0
25/12:00am 10.1 5.9 5.7 74 2.0 WSW 17 22 9 12 1022.4 1022.4 0.0
 
Date/Time
EDT
Temp
°C
App
Temp
°C
Dew
Point
°C
Rel
Hum
%
Delta-T
°C
Wind Press
QNH
hPa
Press
MSL
hPa
Rain since
9am
mm
Dir  Spd
km/h
Gust
km/h
Spd
kts
Gust
kts
24/11:30pm 10.1 6.4 6.1 76 1.9 W 15 20 8 11 1022.6 1022.6 0.0
24/11:00pm 10.2 6.4 5.8 74 2.0 W 15 24 8 13 1022.7 1022.7 0.0
24/10:30pm 10.2 5.9 5.4 72 2.2 WSW 17 22 9 12 1022.9 1022.9 0.0
24/10:00pm 10.6 5.0 5.4 70 2.4 WSW 24 33 13 18 1023.1 1023.1 0.0
24/09:30pm 10.8 5.9 4.9 67 2.7 WSW 20 28 11 15 1023.1 1023.1 0.0
24/09:00pm 11.0 6.1 4.9 66 2.8 WSW 20 28 11 15 1023.0 1023.0 0.0
24/08:30pm 11.0 5.3 4.7 65 2.8 SW 24 32 13 17 1023.0 1023.0 0.0
24/08:00pm 11.3 4.9 5.2 66 2.8 SSW 28 37 15 20 1022.8 1022.8 0.0
24/07:30pm 11.2 4.7 4.9 65 2.9 SSW 28 35 15 19 1022.6 1022.6 0.0
24/07:00pm 11.7 4.3 5.1 64 3.0 SSW 33 43 18 23 1022.3 1022.3 0.0
24/06:30pm 11.9 4.1 4.9 62 3.2 SSW 35 44 19 24 1022.4 1022.4 0.0
24/06:00pm 12.9 5.1 4.8 58 3.7 SSW 35 44 19 24 1022.1 1022.1 0.0
24/05:30pm 13.8 6.2 5.9 59 3.7 SSW 35 44 19 24 1021.9 1021.9 0.0
24/05:00pm 13.8 6.2 5.7 58 3.8 SSW 35 46 19 25 1021.9 1021.9 0.0
24/04:30pm 13.3 5.1 6.4 63 3.3 S 39 52 21 28 1022.0 1022.0 0.0
24/04:00pm 14.4 6.2 4.7 52 4.5 SSW 37 48 20 26 1022.1 1022.1 0.0
24/03:30pm 14.3 6.3 5.9 57 4.0 SSW 37 48 20 26 1022.1 1022.1 0.0
24/03:00pm 14.5 6.7 4.8 52 4.5 SSW 35 46 19 25 1022.2 1022.2 0.0
24/02:30pm 15.0 7.7 5.5 53 4.5 S 33 44 18 24 1022.3 1022.3 0.0
24/02:00pm 15.4 8.0 4.2 47 5.2 SSW 32 41 17 22 1022.4 1022.4 0.0
24/01:30pm 14.7 7.8 4.7 51 4.7 SSW 30 41 16 22 1022.7 1022.7 0.0
24/01:00pm 15.1 8.8 5.9 54 4.4 SSW 28 39 15 21 1022.7 1022.7 0.0
24/12:30pm 14.6 7.9 5.4 54 4.3 SSW 30 39 16 21 1023.0 1023.0 0.0
24/12:00pm 14.2 8.1 8.2 67 3.0 SSW 30 39 16 21 1023.2 1023.2 0.0
24/11:37am 12.0 3.7 6.3 68 2.7 SW 39 57 21 31 1023.5 1023.5 0.0
24/11:30am 12.2 3.5 7.9 75 2.1 SW 43 57 23 31 1023.5 1023.5 0.0
24/11:21am 12.2 5.6 7.7 74 2.2 SSW 32 50 17 27 1023.4 1023.4 0.0
24/11:19am 12.9 6.6 7.6 70 2.6 SSW 30 46 16 25 1023.3 1023.3 0.0
24/11:00am 12.2 8.1 7.9 75 2.1 S 19 26 10 14 1023.3 1023.3 0.0
24/10:30am 12.9 6.0 6.5 65 3.1 SSW 32 43 17 23 1023.2 1023.2 0.0
24/10:00am 11.5 6.8 7.8 78 1.8 WSW 22 30 12 16 1023.1 1023.1 0.0
24/09:30am 12.3 8.1 8.2 76 2.0 WSW 20 28 11 15 1022.9 1022.9 0.0
24/09:00am 11.8 7.5 7.7 76 2.0 W 20 28 11 15 1022.9 1022.9 5.6
24/08:30am 10.4 6.0 7.5 82 1.4 W 20 28 11 15 1022.7 1022.7 5.6
24/08:00am 10.3 6.2 7.9 85 1.2 W 19 30 10 16 1022.4 1022.4 5.6
24/07:30am 8.4 3.9 7.0 91 0.7 W 20 24 11 13 1022.1 1022.1 5.6
24/07:02am 8.5 4.7 7.4 93 0.5 WNW 17 19 9 10 1021.9 1021.9 5.6
24/07:00am 8.5 4.7 7.4 93 0.5 W 17 19 9 10 1021.9 1021.9 5.6
24/06:37am 8.5 4.2 7.0 90 0.7 WSW 19 26 10 14 1021.8 1021.8 5.0
24/06:30am 8.5 4.6 7.0 90 0.7 WSW 17 20 9 11 1021.7 1021.7 4.8
24/06:00am 8.2 4.2 6.8 91 0.6 W 17 20 9 11 1021.3 1021.3 4.8
24/05:30am 8.2 4.3 7.0 92 0.6 W 17 20 9 11 1021.2 1021.2 4.8
24/05:00am 7.4 3.7 6.3 93 0.5 W 15 19 8 10 1021.0 1021.0 4.8
24/04:30am 7.5 3.4 6.4 93 0.5 W 17 20 9 11 1021.0 1021.0 4.8
24/04:00am 7.8 3.8 6.6 92 0.5 W 17 20 9 11 1020.8 1020.8 4.8
24/03:30am 8.3 4.4 6.9 91 0.7 W 17 20 9 11 1021.0 1021.0 4.8
24/03:00am 8.2 4.2 6.8 91 0.6 W 17 22 9 12 1021.0 1021.0 4.4
24/02:30am 8.0 4.0 6.6 91 0.6 W 17 19 9 10 1021.1 1021.1 4.4
24/02:00am 8.5 4.2 7.0 90 0.7 W 19 24 10 13 1021.1 1021.1 4.4
24/01:30am 8.4 4.5 7.0 91 0.7 W 17 22 9 12 1021.3 1021.3 4.4
24/01:00am 8.4 4.9 7.0 91 0.6 W 15 20 8 11 1021.4 1021.4 4.4
24/12:30am 9.4 5.9 7.3 87 1.0 W 15 22 8 12 1021.4 1021.4 4.4
24/12:00am 9.1 6.0 7.2 88 0.9 W 13 17 7 9 1021.3 1021.3 4.4
 
Date/Time
EDT
Temp
°C
App
Temp
°C
Dew
Point
°C
Rel
Hum
%
Delta-T
°C
Wind Press
QNH
hPa
Press
MSL
hPa
Rain since
9am
mm
Dir  Spd
km/h
Gust
km/h
Spd
kts
Gust
kts
23/11:30pm 8.7 5.6 7.2 90 0.7 W 13 15 7 8 1021.4 1021.4 4.4
23/11:00pm 9.4 5.5 7.3 87 1.0 W 17 19 9 10 1021.3 1021.3 4.4
23/10:30pm 10.9 6.8 7.8 81 1.5 WSW 19 22 10 12 1021.2 1021.2 4.4
23/10:00pm 10.9 7.0 8.5 85 1.2 WSW 19 26 10 14 1021.2 1021.2 4.4
23/09:52pm 10.8 7.5 8.2 84 1.3 SW 15 24 8 13 1021.2 1021.2 4.4
23/09:38pm 10.9 6.0 8.5 85 1.2 WSW 24 35 13 19 1021.0 1021.0 4.4
23/09:30pm 11.8 8.0 7.7 76 2.0 SW 17 28 9 15 1020.8 1020.8 4.2
23/09:00pm 11.4 7.6 7.7 78 1.8 WSW 17 20 9 11 1020.3 1020.3 4.2
23/08:30pm 11.3 6.9 7.6 78 1.8 SW 20 28 11 15 1019.9 1019.9 4.2
23/08:00pm 11.2 5.6 7.3 77 1.9 SSW 26 35 14 19 1019.5 1019.5 4.2
23/07:30pm 11.7 5.8 7.6 76 2.0 SSW 28 35 15 19 1018.8 1018.8 4.2
23/07:00pm 12.5 5.9 7.6 72 2.4 SSW 32 41 17 22 1018.5 1018.5 4.2
23/06:30pm 12.3 6.3 8.6 78 1.8 SSW 30 39 16 21 1018.2 1018.2 4.2
23/06:00pm 12.4 7.0 9.6 83 1.4 SSW 28 41 15 22 1017.9 1017.9 4.2
23/05:30pm 13.1 9.2 10.8 86 1.2 SW 22 28 12 15 1017.5 1017.5 4.2
23/05:00pm 12.8 8.4 10.3 85 1.3 SSW 24 32 13 17 1017.3 1017.3 4.2
23/04:30pm 12.5 7.9 11.2 92 0.7 SW 26 35 14 19 1017.2 1017.2 4.0
23/04:00pm 13.3 8.6 10.7 84 1.4 SSW 26 35 14 19 1016.9 1016.9 3.4
23/03:30pm 13.4 10.1 10.8 84 1.4 SSW 19 24 10 13 1016.6 1016.6 3.4
23/03:00pm 13.4 9.7 11.6 89 1.0 SSW 22 28 12 15 1016.7 1016.7 3.4
23/02:35pm 13.1 10.0 12.3 95 0.4 SSW 20 26 11 14 1016.8 1016.8 3.0
23/02:30pm 12.5 9.3 11.2 92 0.7 SSW 19 24 10 13 1016.8 1016.8 2.8
23/02:00pm 12.9 9.4 10.8 87 1.1 SSW 20 26 11 14 1016.6 1016.6 0.6
23/01:57pm 13.0 9.4 10.4 84 1.3 SSW 20 26 11 14 1016.5 1016.5 0.4
23/01:30pm 14.5 10.4 8.7 68 2.9 SSW 20 26 11 14 1016.3 1016.3 0.0
23/01:00pm 14.0 10.7 11.5 85 1.3 S 20 24 11 13 1016.2 1016.2 0.0
23/12:30pm 14.6 9.7 11.2 80 1.8 SSW 28 35 15 19 1016.3 1016.3 0.0
23/12:00pm 14.4 10.3 10.0 75 2.3 SSW 22 26 12 14 1016.2 1016.2 0.0
23/11:30am 14.6 10.1 10.0 74 2.4 SSW 24 32 13 17 1016.0 1016.0 0.0
23/11:00am 14.0 9.0 9.4 74 2.3 SSW 26 35 14 19 1015.9 1015.9 0.0
23/10:30am 14.0 9.9 10.2 78 2.0 SSW 22 30 12 16 1015.8 1015.8 0.0
23/10:16am 13.7 10.0 10.1 79 1.9 SW 20 30 11 16 1015.8 1015.8 0.0
23/10:06am 13.5 10.9 11.9 90 0.9 SW 17 20 9 11 1015.7 1015.7 0.0
23/10:00am 13.4 10.6 11.5 88 1.0 SW 17 24 9 13 1015.7 1015.7 0.0
23/09:30am 13.7 10.2 11.0 84 1.4 SW 20 24 11 13 1015.5 1015.5 0.0
23/09:00am 13.5 11.2 11.6 88 1.0 SW 15 20 8 11 1015.3 1015.3 4.0
23/08:30am 13.7 10.9 11.2 85 1.3 SW 17 22 9 12 1015.0 1015.0 4.0
23/08:00am 13.3 11.3 11.5 89 1.0 SW 13 19 7 10 1014.9 1014.9 4.0
23/07:30am 12.9 10.8 11.3 90 0.8 WSW 13 17 7 9 1014.5 1014.5 4.0
23/07:00am 12.6 10.2 11.3 92 0.7 SW 15 20 8 11 1014.2 1014.2 4.0
23/06:30am 11.8 9.6 10.7 93 0.6 SW 13 20 7 11 1014.1 1014.1 4.0
23/06:00am 12.0 9.8 10.7 92 0.7 SW 13 17 7 9 1014.0 1014.0 4.0
23/05:30am 12.6 9.4 11.2 91 0.7 WSW 19 26 10 14 1014.1 1014.1 4.0
23/05:09am 12.8 9.6 11.4 91 0.7 SW 19 26 10 14 1014.0 1014.0 4.0
23/05:00am 12.8 9.6 11.4 91 0.7 SW 19 24 10 13 1014.0 1014.0 4.0
23/04:30am 13.0 9.9 11.7 92 0.7 SW 19 26 10 14 1013.7 1013.7 4.0
23/04:00am 13.2 11.4 12.1 93 0.6 SW 13 19 7 10 1013.7 1013.7 4.0
23/03:30am 13.0 10.8 12.2 95 0.4 SW 15 20 8 11 1013.6 1013.6 4.0
23/03:17am 13.0 10.9 12.4 96 0.3 SW 15 19 8 10 1013.7 1013.7 4.0
23/03:01am 12.9 10.3 12.1 95 0.4 SW 17 22 9 12 1013.8 1013.8 3.8
23/03:00am 13.0 10.1 12.2 95 0.4 SW 19 22 10 12 1013.8 1013.8 3.8
23/02:30am 13.1 10.9 12.2 94 0.5 SW 15 19 8 10 1014.0 1014.0 3.2
23/02:00am 13.0 10.5 12.2 95 0.4 SW 17 22 9 12 1013.9 1013.9 3.2
23/01:30am 12.9 9.4 12.1 95 0.4 SW 22 28 12 15 1014.0 1014.0 3.2
23/01:23am 12.9 9.0 12.1 95 0.4 SW 24 28 13 15 1014.0 1014.0 3.2
23/01:00am 13.1 10.0 12.3 95 0.4 SW 20 28 11 15 1014.6 1014.6 3.0
23/12:35am 13.4 11.4 12.6 95 0.4 SW 15 22 8 12 1014.5 1014.5 2.4
23/12:30am 13.3 11.6 12.5 95 0.4 SW 13 19 7 10 1014.4 1014.4 2.2
23/12:25am 13.4 11.0 12.6 95 0.4 SW 17 22 9 12 1014.3 1014.3 2.0
23/12:00am 13.4 11.0 12.6 95 0.4 SW 17 24 9 13 1014.6 1014.6 1.6
 
Date/Time
EDT
Temp
°C
App
Temp
°C
Dew
Point
°C
Rel
Hum
%
Delta-T
°C
Wind Press
QNH
hPa
Press
MSL
hPa
Rain since
9am
mm
Dir  Spd
km/h
Gust
km/h
Spd
kts
Gust
kts
22/11:30pm 13.6 10.6 12.7 94 0.5 WSW 20 28 11 15 1014.4 1014.4 1.6
22/11:00pm 13.6 10.7 12.8 95 0.4 SSW 20 28 11 15 1014.2 1014.2 1.6
22/10:30pm 13.9 11.1 13.1 95 0.4 SW 20 26 11 14 1014.5 1014.5 1.6
22/10:19pm 13.8 10.9 13.0 95 0.4 SSW 20 28 11 15 1014.1 1014.1 1.6
22/10:00pm 13.7 11.0 12.9 95 0.4 SSW 19 24 10 13 1013.9 1013.9 0.6
22/09:59pm 13.7 11.0 12.9 95 0.4 SSW 19 24 10 13 1013.9 1013.9 0.6
22/09:33pm 13.8 10.6 13.0 95 0.4 W 22 30 12 16 1014.9 1014.9 0.4
22/09:30pm 13.9 10.7 13.1 95 0.4 WSW 22 30 12 16 1014.9 1014.9 0.4
22/09:23pm 13.9 10.7 13.1 95 0.4 SW 22 30 12 16 1014.2 1014.2 0.0
22/09:00pm 14.0 10.4 13.2 95 0.4 SW 24 33 13 18 1013.6 1013.6 0.0
22/08:30pm 13.6 11.6 12.7 94 0.5 SSW 15 20 8 11 1012.7 1012.7 0.0
22/08:02pm 14.0 11.8 13.2 95 0.4 SW 17 26 9 14 1012.8 1012.8 0.0
22/08:00pm 14.1 11.9 13.3 95 0.4 SW 17 24 9 13 1012.9 1012.9 0.0
22/07:54pm 14.1 11.8 13.1 94 0.6 S 17 28 9 15 1012.8 1012.8 0.0
22/07:52pm 14.0 11.4 13.1 94 0.5 S 19 28 10 15 1012.5 1012.5 0.0
22/07:44pm 14.2 10.6 13.1 93 0.6 SSW 24 33 13 18 1012.2 1012.2 0.0
22/07:30pm 14.3 10.7 13.0 92 0.7 S 24 32 13 17 1012.3 1012.3 0.0

Other formats

Comma delimited format used in spreadsheet applications
http://www.bom.gov.au/fwo/IDV60801/IDV60801.94854.axf

JavaScript Object Notation format (JSON) in row-major order
http://www.bom.gov.au/fwo/IDV60801/IDV60801.94854.json

Data quality

Most of these data are generated automatically and are frequently updated. Quality checks on data are not normally performed. It is possible for incorrect values to appear. Refer to information at About Latest Weather Observations and please check the disclaimer before using these data.